EGAA - Belfast / Aldergrove Airport
Distance from station: E 5mi, 14km
Updated: 10/20/2017 9:20pm
Mostly Cloudy
Mostly Cloudy
 Wind from SE
Wind: SE 16 mph , 26 km/h
Temperature: 54°F , 12°C
Dew Point: 48°F , 9°C
Humidity: 82%
Barometer: 29.06 inHg , 984 hPa
Clouds: Mostly Cloudy
Visibility: 6 miles , 10 km
Cloud details: Few Clouds 2800 ft
Mostly Cloudy 3700 ft
2017/10/21 04:20 EGAA 210420Z 13014KT 9999 FEW028 BKN037 12/09 Q0984